sensor_id;sensor_type;location;lat;lon;timestamp;pressure;altitude;pressure_sealevel;temperature;humidity
32733;BME280;11867;51.198;11.966;2023-04-08T00:00:32;100914.94;;;7.71;94.95
32733;BME280;11867;51.198;11.966;2023-04-08T00:01:33;100918.09;;;7.85;94.91
32733;BME280;11867;51.198;11.966;2023-04-08T00:02:36;100915.56;;;7.78;95.79
32733;BME280;11867;51.198;11.966;2023-04-08T00:03:39;100918.06;;;7.80;95.04
32733;BME280;11867;51.198;11.966;2023-04-08T00:04:42;100904.13;;;7.76;95.35
32733;BME280;11867;51.198;11.966;2023-04-08T00:05:44;100911.63;;;7.86;95.42
32733;BME280;11867;51.198;11.966;2023-04-08T00:06:46;100913.25;;;7.87;95.68
32733;BME280;11867;51.198;11.966;2023-04-08T00:07:48;100916.16;;;7.80;95.48
32733;BME280;11867;51.198;11.966;2023-04-08T00:08:51;100909.16;;;7.67;96.31
32733;BME280;11867;51.198;11.966;2023-04-08T00:09:53;100906.03;;;7.76;96.06
32733;BME280;11867;51.198;11.966;2023-04-08T00:10:56;100904.00;;;7.49;96.40
32733;BME280;11867;51.198;11.966;2023-04-08T00:11:57;100907.91;;;7.41;97.13
32733;BME280;11867;51.198;11.966;2023-04-08T00:13:00;100908.94;;;7.69;96.09
32733;BME280;11867;51.198;11.966;2023-04-08T00:14:02;100905.22;;;7.58;96.25
32733;BME280;11867;51.198;11.966;2023-04-08T00:15:05;100904.38;;;7.58;96.66
32733;BME280;11867;51.198;11.966;2023-04-08T00:16:07;100904.56;;;7.68;96.59
32733;BME280;11867;51.198;11.966;2023-04-08T00:17:09;100903.38;;;7.81;95.77
32733;BME280;11867;51.198;11.966;2023-04-08T00:18:12;100908.31;;;7.33;97.27
32733;BME280;11867;51.198;11.966;2023-04-08T00:19:15;100909.06;;;7.62;97.08
32733;BME280;11867;51.198;11.966;2023-04-08T00:20:17;100909.97;;;7.68;97.26
32733;BME280;11867;51.198;11.966;2023-04-08T00:21:19;100900.03;;;7.57;97.46
32733;BME280;11867;51.198;11.966;2023-04-08T00:22:22;100907.78;;;7.65;97.52
32733;BME280;11867;51.198;11.966;2023-04-08T00:23:24;100904.88;;;7.72;97.18
32733;BME280;11867;51.198;11.966;2023-04-08T00:24:27;100904.72;;;7.44;97.64
32733;BME280;11867;51.198;11.966;2023-04-08T00:25:30;100903.75;;;7.51;98.04
32733;BME280;11867;51.198;11.966;2023-04-08T00:26:31;100910.13;;;7.27;98.22
32733;BME280;11867;51.198;11.966;2023-04-08T00:27:34;100904.63;;;7.39;98.87
32733;BME280;11867;51.198;11.966;2023-04-08T00:28:36;100909.63;;;7.14;99.65
32733;BME280;11867;51.198;11.966;2023-04-08T00:29:38;100902.88;;;7.16;100.00
32733;BME280;11867;51.198;11.966;2023-04-08T00:30:40;100899.94;;;7.35;99.47
32733;BME280;11867;51.198;11.966;2023-04-08T00:31:43;100912.19;;;7.54;98.86
32733;BME280;11867;51.198;11.966;2023-04-08T00:32:44;100909.41;;;7.66;98.57
32733;BME280;11867;51.198;11.966;2023-04-08T00:33:47;100914.25;;;7.64;98.47
32733;BME280;11867;51.198;11.966;2023-04-08T00:34:48;100897.22;;;7.68;97.04
32733;BME280;11867;51.198;11.966;2023-04-08T00:35:51;100909.59;;;7.42;98.21
32733;BME280;11867;51.198;11.966;2023-04-08T00:36:53;100914.09;;;7.37;99.57
32733;BME280;11867;51.198;11.966;2023-04-08T00:37:56;100911.31;;;7.65;98.73
32733;BME280;11867;51.198;11.966;2023-04-08T00:38:59;100910.78;;;7.68;98.16
32733;BME280;11867;51.198;11.966;2023-04-08T00:40:01;100910.63;;;7.58;98.04
32733;BME280;11867;51.198;11.966;2023-04-08T00:41:05;100905.38;;;7.68;97.58
32733;BME280;11867;51.198;11.966;2023-04-08T00:42:07;100908.75;;;7.76;96.93
32733;BME280;11867;51.198;11.966;2023-04-08T00:43:10;100906.34;;;7.96;95.99
32733;BME280;11867;51.198;11.966;2023-04-08T00:44:11;100914.88;;;8.05;95.30
32733;BME280;11867;51.198;11.966;2023-04-08T00:45:14;100904.84;;;8.05;95.21
32733;BME280;11867;51.198;11.966;2023-04-08T00:46:16;100906.06;;;7.98;95.03
32733;BME280;11867;51.198;11.966;2023-04-08T00:47:18;100912.06;;;8.00;94.60
32733;BME280;11867;51.198;11.966;2023-04-08T00:48:20;100909.41;;;7.83;95.87
32733;BME280;11867;51.198;11.966;2023-04-08T00:49:23;100909.66;;;7.81;96.39
32733;BME280;11867;51.198;11.966;2023-04-08T00:50:24;100909.00;;;7.74;96.47
32733;BME280;11867;51.198;11.966;2023-04-08T00:51:27;100914.25;;;7.81;96.61
32733;BME280;11867;51.198;11.966;2023-04-08T00:52:28;100904.34;;;7.92;96.10
32733;BME280;11867;51.198;11.966;2023-04-08T00:53:31;100910.22;;;8.00;95.63
32733;BME280;11867;51.198;11.966;2023-04-08T00:54:35;100907.78;;;8.04;95.08
32733;BME280;11867;51.198;11.966;2023-04-08T00:55:39;100897.22;;;8.02;94.46
32733;BME280;11867;51.198;11.966;2023-04-08T00:56:42;100904.06;;;7.88;95.45
32733;BME280;11867;51.198;11.966;2023-04-08T00:57:45;100911.88;;;7.84;95.98
32733;BME280;11867;51.198;11.966;2023-04-08T00:58:47;100909.88;;;7.97;96.07
32733;BME280;11867;51.198;11.966;2023-04-08T00:59:51;100903.63;;;7.96;96.17
32733;BME280;11867;51.198;11.966;2023-04-08T01:00:57;100911.22;;;7.77;96.86
32733;BME280;11867;51.198;11.966;2023-04-08T01:02:07;100909.00;;;7.74;96.57
32733;BME280;11867;51.198;11.966;2023-04-08T01:03:17;100906.22;;;7.69;96.93
32733;BME280;11867;51.198;11.966;2023-04-08T01:04:26;100899.69;;;7.87;96.53
32733;BME280;11867;51.198;11.966;2023-04-08T01:05:48;100898.28;;;7.84;95.96
32733;BME280;11867;51.198;11.966;2023-04-08T01:06:56;100908.00;;;7.80;96.66
32733;BME280;11867;51.198;11.966;2023-04-08T01:08:04;100903.53;;;7.91;96.13
32733;BME280;11867;51.198;11.966;2023-04-08T01:09:07;100901.50;;;7.98;95.42
32733;BME280;11867;51.198;11.966;2023-04-08T01:10:12;100912.63;;;7.80;95.78
32733;BME280;11867;51.198;11.966;2023-04-08T01:11:17;100908.09;;;7.68;96.80
32733;BME280;11867;51.198;11.966;2023-04-08T01:12:24;100908.34;;;7.67;97.50
32733;BME280;11867;51.198;11.966;2023-04-08T01:13:30;100906.44;;;7.67;97.66
32733;BME280;11867;51.198;11.966;2023-04-08T01:14:39;100912.44;;;7.86;97.62
32733;BME280;11867;51.198;11.966;2023-04-08T01:15:43;100911.81;;;7.79;97.74
32733;BME280;11867;51.198;11.966;2023-04-08T01:16:46;100913.66;;;7.96;97.34
32733;BME280;11867;51.198;11.966;2023-04-08T01:17:50;100899.63;;;7.82;97.15
32733;BME280;11867;51.198;11.966;2023-04-08T01:18:54;100910.16;;;7.61;97.34
32733;BME280;11867;51.198;11.966;2023-04-08T01:19:59;100912.78;;;7.39;99.23
32733;BME280;11867;51.198;11.966;2023-04-08T01:21:02;100907.50;;;7.50;99.75
32733;BME280;11867;51.198;11.966;2023-04-08T01:22:11;100909.81;;;7.58;100.00
32733;BME280;11867;51.198;11.966;2023-04-08T01:23:20;100915.00;;;7.59;99.70
32733;BME280;11867;51.198;11.966;2023-04-08T01:24:27;100916.16;;;7.46;99.89
32733;BME280;11867;51.198;11.966;2023-04-08T01:25:31;100910.31;;;7.55;99.90
32733;BME280;11867;51.198;11.966;2023-04-08T01:26:36;100913.78;;;7.67;99.04
32733;BME280;11867;51.198;11.966;2023-04-08T01:27:38;100914.34;;;7.69;98.62
32733;BME280;11867;51.198;11.966;2023-04-08T01:28:41;100910.41;;;7.60;98.45
32733;BME280;11867;51.198;11.966;2023-04-08T01:29:46;100911.66;;;7.69;97.26
32733;BME280;11867;51.198;11.966;2023-04-08T01:30:49;100917.88;;;7.86;96.75
32733;BME280;11867;51.198;11.966;2023-04-08T01:31:53;100913.59;;;7.91;96.21
32733;BME280;11867;51.198;11.966;2023-04-08T01:32:56;100910.16;;;7.78;96.48
32733;BME280;11867;51.198;11.966;2023-04-08T01:34:01;100919.84;;;7.74;96.96
32733;BME280;11867;51.198;11.966;2023-04-08T01:35:05;100916.22;;;7.68;97.98
32733;BME280;11867;51.198;11.966;2023-04-08T01:36:09;100919.44;;;7.82;97.22
32733;BME280;11867;51.198;11.966;2023-04-08T01:37:12;100920.16;;;7.95;96.77
32733;BME280;11867;51.198;11.966;2023-04-08T01:38:17;100912.03;;;7.95;96.21
32733;BME280;11867;51.198;11.966;2023-04-08T01:39:20;100909.97;;;7.68;96.60
32733;BME280;11867;51.198;11.966;2023-04-08T01:40:22;100913.59;;;7.74;97.03
32733;BME280;11867;51.198;11.966;2023-04-08T01:41:24;100917.31;;;7.51;97.15
32733;BME280;11867;51.198;11.966;2023-04-08T01:42:28;100911.78;;;7.45;98.54
32733;BME280;11867;51.198;11.966;2023-04-08T01:43:30;100909.06;;;7.45;98.94
32733;BME280;11867;51.198;11.966;2023-04-08T01:44:35;100907.50;;;7.33;98.79
32733;BME280;11867;51.198;11.966;2023-04-08T01:45:38;100915.75;;;7.55;98.30
32733;BME280;11867;51.198;11.966;2023-04-08T01:46:41;100912.69;;;7.68;97.58
32733;BME280;11867;51.198;11.966;2023-04-08T01:47:44;100913.09;;;7.60;97.89
32733;BME280;11867;51.198;11.966;2023-04-08T01:48:48;100909.19;;;7.51;98.41
32733;BME280;11867;51.198;11.966;2023-04-08T01:49:51;100901.91;;;7.39;98.43
32733;BME280;11867;51.198;11.966;2023-04-08T01:50:54;100917.16;;;7.57;98.76
32733;BME280;11867;51.198;11.966;2023-04-08T01:51:57;100909.50;;;7.71;97.59
32733;BME280;11867;51.198;11.966;2023-04-08T01:53:01;100904.72;;;7.78;97.22
32733;BME280;11867;51.198;11.966;2023-04-08T01:54:05;100906.53;;;7.73;97.34
32733;BME280;11867;51.198;11.966;2023-04-08T01:55:08;100905.63;;;7.67;96.85
32733;BME280;11867;51.198;11.966;2023-04-08T01:56:11;100903.66;;;7.45;97.39
32733;BME280;11867;51.198;11.966;2023-04-08T01:57:16;100909.50;;;7.08;100.00
32733;BME280;11867;51.198;11.966;2023-04-08T01:58:21;100913.50;;;6.89;100.00
32733;BME280;11867;51.198;11.966;2023-04-08T01:59:27;100910.84;;;7.23;100.00
32733;BME280;11867;51.198;11.966;2023-04-08T02:00:30;100921.00;;;7.44;100.00
32733;BME280;11867;51.198;11.966;2023-04-08T02:01:34;100915.75;;;7.55;100.00
32733;BME280;11867;51.198;11.966;2023-04-08T02:02:37;100909.72;;;7.36;99.75
32733;BME280;11867;51.198;11.966;2023-04-08T02:03:41;100908.31;;;7.33;99.60
32733;BME280;11867;51.198;11.966;2023-04-08T02:04:43;100909.06;;;7.45;99.41
32733;BME280;11867;51.198;11.966;2023-04-08T02:05:46;100909.59;;;7.59;98.44
32733;BME280;11867;51.198;11.966;2023-04-08T02:06:48;100917.84;;;7.36;99.10
32733;BME280;11867;51.198;11.966;2023-04-08T02:07:51;100908.47;;;7.10;100.00
32733;BME280;11867;51.198;11.966;2023-04-08T02:08:52;100925.97;;;6.90;100.00
32733;BME280;11867;51.198;11.966;2023-04-08T02:09:55;100914.66;;;6.93;100.00
32733;BME280;11867;51.198;11.966;2023-04-08T02:10:57;100911.84;;;6.88;100.00
32733;BME280;11867;51.198;11.966;2023-04-08T02:11:59;100908.84;;;7.01;100.00
32733;BME280;11867;51.198;11.966;2023-04-08T02:13:01;100911.72;;;6.95;100.00
32733;BME280;11867;51.198;11.966;2023-04-08T02:14:05;100912.91;;;7.16;100.00
32733;BME280;11867;51.198;11.966;2023-04-08T02:15:08;100910.09;;;7.11;100.00
32733;BME280;11867;51.198;11.966;2023-04-08T02:16:15;100909.31;;;7.27;100.00
32733;BME280;11867;51.198;11.966;2023-04-08T02:17:22;100910.59;;;7.07;100.00
32733;BME280;11867;51.198;11.966;2023-04-08T02:18:27;100914.69;;;7.10;100.00
32733;BME280;11867;51.198;11.966;2023-04-08T02:19:32;100914.69;;;7.10;100.00
32733;BME280;11867;51.198;11.966;2023-04-08T02:20:42;100917.94;;;7.24;99.50
32733;BME280;11867;51.198;11.966;2023-04-08T02:21:46;100924.16;;;7.07;100.00
32733;BME280;11867;51.198;11.966;2023-04-08T02:22:56;100914.66;;;6.93;100.00
32733;BME280;11867;51.198;11.966;2023-04-08T02:24:04;100924.59;;;6.87;100.00
32733;BME280;11867;51.198;11.966;2023-04-08T02:25:08;100927.72;;;6.96;100.00
32733;BME280;11867;51.198;11.966;2023-04-08T02:26:13;100926.72;;;7.14;100.00
32733;BME280;11867;51.198;11.966;2023-04-08T02:27:16;100929.03;;;7.39;100.00
32733;BME280;11867;51.198;11.966;2023-04-08T02:28:19;100928.22;;;7.39;99.52
32733;BME280;11867;51.198;11.966;2023-04-08T02:29:23;100923.78;;;7.33;100.00
32733;BME280;11867;51.198;11.966;2023-04-08T02:30:27;100929.97;;;7.45;99.04
32733;BME280;11867;51.198;11.966;2023-04-08T02:31:29;100924.38;;;7.35;99.22
32733;BME280;11867;51.198;11.966;2023-04-08T02:32:33;100924.81;;;7.15;100.00
32733;BME280;11867;51.198;11.966;2023-04-08T02:33:37;100928.50;;;7.08;100.00
32733;BME280;11867;51.198;11.966;2023-04-08T02:34:41;100926.38;;;7.11;100.00
32733;BME280;11867;51.198;11.966;2023-04-08T02:35:44;100926.53;;;7.04;100.00
32733;BME280;11867;51.198;11.966;2023-04-08T02:36:46;100921.88;;;6.87;100.00
32733;BME280;11867;51.198;11.966;2023-04-08T02:37:48;100925.97;;;6.90;100.00
32733;BME280;11867;51.198;11.966;2023-04-08T02:38:51;100917.25;;;6.88;100.00
32733;BME280;11867;51.198;11.966;2023-04-08T02:39:53;100889.91;;;6.61;100.00
32733;BME280;11867;51.198;11.966;2023-04-08T02:40:55;100913.84;;;6.93;100.00
32733;BME280;11867;51.198;11.966;2023-04-08T02:41:57;100916.50;;;7.04;100.00
32733;BME280;11867;51.198;11.966;2023-04-08T02:43:00;100908.81;;;7.13;100.00
32733;BME280;11867;51.198;11.966;2023-04-08T02:44:01;100912.03;;;6.98;100.00
32733;BME280;11867;51.198;11.966;2023-04-08T02:45:07;100912.09;;;7.15;100.00
32733;BME280;11867;51.198;11.966;2023-04-08T02:46:09;100912.19;;;7.20;99.55
32733;BME280;11867;51.198;11.966;2023-04-08T02:47:13;100919.19;;;7.33;99.62
32733;BME280;11867;51.198;11.966;2023-04-08T02:48:14;100912.00;;;7.27;99.63
32733;BME280;11867;51.198;11.966;2023-04-08T02:49:16;100911.22;;;7.43;99.32
32733;BME280;11867;51.198;11.966;2023-04-08T02:50:18;100915.66;;;7.50;98.97
32733;BME280;11867;51.198;11.966;2023-04-08T02:51:21;100912.78;;;7.39;98.78
32733;BME280;11867;51.198;11.966;2023-04-08T02:52:22;100915.22;;;7.24;99.58
32733;BME280;11867;51.198;11.966;2023-04-08T02:53:24;100916.38;;;7.11;99.92
32733;BME280;11867;51.198;11.966;2023-04-08T02:54:26;100904.03;;;7.20;100.00
32733;BME280;11867;51.198;11.966;2023-04-08T02:55:29;100918.75;;;7.24;100.00
32733;BME280;11867;51.198;11.966;2023-04-08T02:56:31;100910.63;;;7.24;100.00
32733;BME280;11867;51.198;11.966;2023-04-08T02:57:33;100916.25;;;7.06;100.00
32733;BME280;11867;51.198;11.966;2023-04-08T02:58:35;100906.22;;;7.06;100.00
32733;BME280;11867;51.198;11.966;2023-04-08T02:59:37;100924.38;;;7.06;100.00
32733;BME280;11867;51.198;11.966;2023-04-08T03:00:42;100915.69;;;7.04;100.00
32733;BME280;11867;51.198;11.966;2023-04-08T03:01:44;100928.69;;;7.19;100.00
32733;BME280;11867;51.198;11.966;2023-04-08T03:02:46;100917.94;;;7.24;100.00
32733;BME280;11867;51.198;11.966;2023-04-08T03:03:49;100920.97;;;7.27;100.00
32733;BME280;11867;51.198;11.966;2023-04-08T03:04:51;100921.41;;;7.36;100.00
32733;BME280;11867;51.198;11.966;2023-04-08T03:05:54;100925.84;;;7.42;99.91
32733;BME280;11867;51.198;11.966;2023-04-08T03:06:56;100913.03;;;7.55;99.51
32733;BME280;11867;51.198;11.966;2023-04-08T03:07:58;100915.19;;;7.53;99.12
32733;BME280;11867;51.198;11.966;2023-04-08T03:09:00;100918.88;;;7.63;98.67
32733;BME280;11867;51.198;11.966;2023-04-08T03:10:03;100916.72;;;7.65;98.24
32733;BME280;11867;51.198;11.966;2023-04-08T03:11:04;100913.09;;;7.60;98.56
32733;BME280;11867;51.198;11.966;2023-04-08T03:12:07;100920.34;;;7.54;98.66
32733;BME280;11867;51.198;11.966;2023-04-08T03:13:08;100922.41;;;7.47;98.58
32733;BME280;11867;51.198;11.966;2023-04-08T03:14:11;100918.00;;;7.12;100.00
32733;BME280;11867;51.198;11.966;2023-04-08T03:15:13;100915.50;;;7.11;100.00
32733;BME280;11867;51.198;11.966;2023-04-08T03:16:16;100911.56;;;7.01;100.00
32733;BME280;11867;51.198;11.966;2023-04-08T03:17:18;100917.47;;;6.98;100.00
32733;BME280;11867;51.198;11.966;2023-04-08T03:18:21;100917.06;;;6.78;100.00
32733;BME280;11867;51.198;11.966;2023-04-08T03:19:22;100914.47;;;6.83;100.00
32733;BME280;11867;51.198;11.966;2023-04-08T03:20:25;100912.34;;;6.85;100.00
32733;BME280;11867;51.198;11.966;2023-04-08T03:21:26;100912.94;;;6.87;100.00
32733;BME280;11867;51.198;11.966;2023-04-08T03:22:32;100916.59;;;6.81;100.00
32733;BME280;11867;51.198;11.966;2023-04-08T03:23:34;100925.91;;;6.85;100.00
32733;BME280;11867;51.198;11.966;2023-04-08T03:24:36;100919.06;;;6.82;100.00
32733;BME280;11867;51.198;11.966;2023-04-08T03:25:38;100928.69;;;6.90;100.00
32733;BME280;11867;51.198;11.966;2023-04-08T03:26:40;100923.47;;;7.00;100.00
32733;BME280;11867;51.198;11.966;2023-04-08T03:27:42;100927.13;;;6.94;100.00
32733;BME280;11867;51.198;11.966;2023-04-08T03:28:44;100924.38;;;7.06;100.00
32733;BME280;11867;51.198;11.966;2023-04-08T03:29:46;100922.25;;;7.08;100.00
32733;BME280;11867;51.198;11.966;2023-04-08T03:30:49;100928.69;;;7.19;100.00
32733;BME280;11867;51.198;11.966;2023-04-08T03:31:52;100923.91;;;7.09;100.00
32733;BME280;11867;51.198;11.966;2023-04-08T03:32:54;100926.16;;;7.00;100.00
32733;BME280;11867;51.198;11.966;2023-04-08T03:33:56;100925.53;;;6.81;100.00
32733;BME280;11867;51.198;11.966;2023-04-08T03:34:58;100924.00;;;6.85;100.00
32733;BME280;11867;51.198;11.966;2023-04-08T03:36:00;100927.06;;;6.89;100.00
32733;BME280;11867;51.198;11.966;2023-04-08T03:37:03;100921.59;;;7.01;100.00
32733;BME280;11867;51.198;11.966;2023-04-08T03:38:05;100930.94;;;6.93;100.00
32733;BME280;11867;51.198;11.966;2023-04-08T03:39:07;100934.84;;;6.85;100.00
32733;BME280;11867;51.198;11.966;2023-04-08T03:40:11;100924.03;;;7.02;100.00
32733;BME280;11867;51.198;11.966;2023-04-08T03:41:13;100926.91;;;7.24;100.00
32733;BME280;11867;51.198;11.966;2023-04-08T03:42:15;100925.31;;;7.12;100.00
32733;BME280;11867;51.198;11.966;2023-04-08T03:43:17;100933.34;;;7.06;100.00
32733;BME280;11867;51.198;11.966;2023-04-08T03:44:21;100927.91;;;7.06;100.00
32733;BME280;11867;51.198;11.966;2023-04-08T03:45:23;100936.94;;;7.24;100.00
32733;BME280;11867;51.198;11.966;2023-04-08T03:46:25;100931.41;;;7.19;100.00
32733;BME280;11867;51.198;11.966;2023-04-08T03:47:29;100936.25;;;7.17;100.00
32733;BME280;11867;51.198;11.966;2023-04-08T03:48:31;100938.94;;;6.88;100.00
32733;BME280;11867;51.198;11.966;2023-04-08T03:49:33;100936.59;;;6.92;100.00
32733;BME280;11867;51.198;11.966;2023-04-08T03:50:35;100936.34;;;6.93;100.00
32733;BME280;11867;51.198;11.966;2023-04-08T03:51:37;100937.94;;;7.06;100.00
32733;BME280;11867;51.198;11.966;2023-04-08T03:52:39;100935.53;;;6.93;100.00
32733;BME280;11867;51.198;11.966;2023-04-08T03:53:41;100934.63;;;6.75;100.00
32733;BME280;11867;51.198;11.966;2023-04-08T03:54:43;100933.53;;;6.88;100.00
32733;BME280;11867;51.198;11.966;2023-04-08T03:55:47;100935.94;;;6.73;100.00
32733;BME280;11867;51.198;11.966;2023-04-08T03:56:50;100948.91;;;6.71;100.00
32733;BME280;11867;51.198;11.966;2023-04-08T03:57:52;100938.91;;;6.71;100.00
32733;BME280;11867;51.198;11.966;2023-04-08T03:58:54;100952.81;;;6.63;100.00
32733;BME280;11867;51.198;11.966;2023-04-08T03:59:56;100944.75;;;6.39;100.00
32733;BME280;11867;51.198;11.966;2023-04-08T04:00:58;100952.28;;;6.49;100.00
32733;BME280;11867;51.198;11.966;2023-04-08T04:02:00;100948.94;;;6.59;100.00
32733;BME280;11867;51.198;11.966;2023-04-08T04:03:04;100950.97;;;6.52;100.00
32733;BME280;11867;51.198;11.966;2023-04-08T04:04:07;100953.00;;;6.33;100.00
32733;BME280;11867;51.198;11.966;2023-04-08T04:05:09;100952.66;;;6.17;100.00
32733;BME280;11867;51.198;11.966;2023-04-08T04:06:11;100952.53;;;6.36;100.00
32733;BME280;11867;51.198;11.966;2023-04-08T04:07:13;100946.63;;;6.39;100.00
32733;BME280;11867;51.198;11.966;2023-04-08T04:08:15;100954.47;;;6.64;100.00
32733;BME280;11867;51.198;11.966;2023-04-08T04:09:17;100956.16;;;6.53;100.00
32733;BME280;11867;51.198;11.966;2023-04-08T04:10:19;100961.19;;;6.61;100.00
32733;BME280;11867;51.198;11.966;2023-04-08T04:11:21;100955.28;;;6.64;100.00
32733;BME280;11867;51.198;11.966;2023-04-08T04:12:23;100958.50;;;6.50;100.00
32733;BME280;11867;51.198;11.966;2023-04-08T04:13:26;100962.19;;;6.20;100.00
32733;BME280;11867;51.198;11.966;2023-04-08T04:14:28;100960.31;;;6.09;100.00
32733;BME280;11867;51.198;11.966;2023-04-08T04:15:30;100964.78;;;6.15;100.00
32733;BME280;11867;51.198;11.966;2023-04-08T04:16:32;100963.00;;;6.44;100.00
32733;BME280;11867;51.198;11.966;2023-04-08T04:17:34;100963.34;;;6.47;100.00
32733;BME280;11867;51.198;11.966;2023-04-08T04:18:37;100975.53;;;6.74;100.00
32733;BME280;11867;51.198;11.966;2023-04-08T04:19:40;100967.13;;;6.87;100.00
32733;BME280;11867;51.198;11.966;2023-04-08T04:20:42;100966.19;;;6.81;100.00
32733;BME280;11867;51.198;11.966;2023-04-08T04:21:44;100968.41;;;6.44;100.00
32733;BME280;11867;51.198;11.966;2023-04-08T04:22:46;100972.78;;;6.45;100.00
32733;BME280;11867;51.198;11.966;2023-04-08T04:23:48;100981.59;;;6.52;100.00
32733;BME280;11867;51.198;11.966;2023-04-08T04:24:50;100981.13;;;6.55;100.00
32733;BME280;11867;51.198;11.966;2023-04-08T04:25:52;100974.31;;;6.41;100.00
32733;BME280;11867;51.198;11.966;2023-04-08T04:26:54;100967.31;;;6.57;100.00
32733;BME280;11867;51.198;11.966;2023-04-08T04:27:56;100974.63;;;6.68;100.00
32733;BME280;11867;51.198;11.966;2023-04-08T04:28:58;100977.56;;;6.55;100.00
32733;BME280;11867;51.198;11.966;2023-04-08T04:30:01;100981.81;;;6.62;100.00
32733;BME280;11867;51.198;11.966;2023-04-08T04:31:03;100977.66;;;6.72;100.00
32733;BME280;11867;51.198;11.966;2023-04-08T04:32:05;100981.03;;;6.91;100.00
32733;BME280;11867;51.198;11.966;2023-04-08T04:33:07;100979.09;;;6.74;100.00
32733;BME280;11867;51.198;11.966;2023-04-08T04:34:11;100977.25;;;6.92;100.00
32733;BME280;11867;51.198;11.966;2023-04-08T04:35:12;100978.34;;;6.79;100.00
32733;BME280;11867;51.198;11.966;2023-04-08T04:36:15;100980.41;;;6.48;100.00
32733;BME280;11867;51.198;11.966;2023-04-08T04:37:16;100987.81;;;6.64;100.00
32733;BME280;11867;51.198;11.966;2023-04-08T04:38:19;100983.44;;;6.63;100.00
32733;BME280;11867;51.198;11.966;2023-04-08T04:39:20;100980.84;;;6.69;100.00
32733;BME280;11867;51.198;11.966;2023-04-08T04:40:23;100981.44;;;6.71;100.00
32733;BME280;11867;51.198;11.966;2023-04-08T04:41:24;100982.66;;;6.51;100.00
32733;BME280;11867;51.198;11.966;2023-04-08T04:42:27;100978.06;;;6.52;100.00
32733;BME280;11867;51.198;11.966;2023-04-08T04:43:29;100981.09;;;6.67;100.00
32733;BME280;11867;51.198;11.966;2023-04-08T04:44:31;100980.72;;;6.75;100.00
32733;BME280;11867;51.198;11.966;2023-04-08T04:45:33;100978.00;;;6.75;100.00
32733;BME280;11867;51.198;11.966;2023-04-08T04:46:35;100984.59;;;6.79;100.00
32733;BME280;11867;51.198;11.966;2023-04-08T04:47:38;100984.22;;;6.87;100.00
32733;BME280;11867;51.198;11.966;2023-04-08T04:48:39;100974.34;;;6.70;100.00
32733;BME280;11867;51.198;11.966;2023-04-08T04:49:43;100980.84;;;6.69;100.00
32733;BME280;11867;51.198;11.966;2023-04-08T04:50:53;100990.50;;;6.76;100.00
32733;BME280;11867;51.198;11.966;2023-04-08T04:51:56;100978.03;;;6.63;100.00
32733;BME280;11867;51.198;11.966;2023-04-08T04:52:57;100987.09;;;6.57;100.00
32733;BME280;11867;51.198;11.966;2023-04-08T04:54:00;100991.56;;;6.75;100.00
32733;BME280;11867;51.198;11.966;2023-04-08T04:55:02;100988.63;;;6.77;100.00
32733;BME280;11867;51.198;11.966;2023-04-08T04:56:05;100985.16;;;6.93;100.00
32733;BME280;11867;51.198;11.966;2023-04-08T04:57:07;100992.78;;;6.44;100.00
32733;BME280;11867;51.198;11.966;2023-04-08T04:58:11;100994.53;;;6.50;100.00
32733;BME280;11867;51.198;11.966;2023-04-08T04:59:12;100992.31;;;6.35;100.00
32733;BME280;11867;51.198;11.966;2023-04-08T05:00:15;101003.00;;;6.65;100.00
32733;BME280;11867;51.198;11.966;2023-04-08T05:01:17;101004.06;;;6.76;100.00
32733;BME280;11867;51.198;11.966;2023-04-08T05:02:19;100997.78;;;6.76;100.00
32733;BME280;11867;51.198;11.966;2023-04-08T05:03:21;100998.25;;;6.84;100.00
32733;BME280;11867;51.198;11.966;2023-04-08T05:04:24;100995.03;;;6.99;100.00
32733;BME280;11867;51.198;11.966;2023-04-08T05:05:27;101006.84;;;6.93;100.00
32733;BME280;11867;51.198;11.966;2023-04-08T05:06:29;101005.19;;;6.92;100.00
32733;BME280;11867;51.198;11.966;2023-04-08T05:07:34;100997.00;;;6.63;100.00
32733;BME280;11867;51.198;11.966;2023-04-08T05:08:37;100993.28;;;6.41;100.00
32733;BME280;11867;51.198;11.966;2023-04-08T05:09:38;101006.56;;;6.54;100.00
32733;BME280;11867;51.198;11.966;2023-04-08T05:10:41;101001.50;;;6.46;100.00
32733;BME280;11867;51.198;11.966;2023-04-08T05:11:42;101003.25;;;6.64;100.00
32733;BME280;11867;51.198;11.966;2023-04-08T05:12:45;100996.03;;;6.70;100.00
32733;BME280;11867;51.198;11.966;2023-04-08T05:13:47;100998.78;;;6.58;100.00
32733;BME280;11867;51.198;11.966;2023-04-08T05:14:49;101003.69;;;6.73;100.00
32733;BME280;11867;51.198;11.966;2023-04-08T05:15:51;101001.00;;;6.73;100.00
32733;BME280;11867;51.198;11.966;2023-04-08T05:16:54;101002.53;;;6.80;100.00
32733;BME280;11867;51.198;11.966;2023-04-08T05:17:55;101004.63;;;6.78;100.00
32733;BME280;11867;51.198;11.966;2023-04-08T05:18:58;101000.91;;;6.96;100.00
32733;BME280;11867;51.198;11.966;2023-04-08T05:20:00;100994.34;;;6.92;100.00
32733;BME280;11867;51.198;11.966;2023-04-08T05:21:03;100996.66;;;7.00;100.00
32733;BME280;11867;51.198;11.966;2023-04-08T05:22:06;101002.63;;;6.74;100.00
32733;BME280;11867;51.198;11.966;2023-04-08T05:23:08;101003.63;;;6.44;100.00
32733;BME280;11867;51.198;11.966;2023-04-08T05:24:10;101004.53;;;6.61;100.00
32733;BME280;11867;51.198;11.966;2023-04-08T05:25:12;101005.69;;;6.65;100.00
32733;BME280;11867;51.198;11.966;2023-04-08T05:26:14;101012.50;;;6.80;100.00
32733;BME280;11867;51.198;11.966;2023-04-08T05:27:16;101013.03;;;6.30;100.00